sensor_id;sensor_type;location;lat;lon;timestamp;temperature;humidity
15749;DHT22;7976;52.526;13.326;2022-09-24T00:01:25;13.10;99.90
15749;DHT22;7976;52.526;13.326;2022-09-24T00:03:56;13.10;99.90
15749;DHT22;7976;52.526;13.326;2022-09-24T00:06:25;13.10;99.90
15749;DHT22;7976;52.526;13.326;2022-09-24T00:08:54;13.00;99.90
15749;DHT22;7976;52.526;13.326;2022-09-24T00:11:24;13.00;99.90
15749;DHT22;7976;52.526;13.326;2022-09-24T00:13:55;13.00;99.90
15749;DHT22;7976;52.526;13.326;2022-09-24T00:16:26;13.00;99.90
15749;DHT22;7976;52.526;13.326;2022-09-24T00:18:55;13.00;99.90
15749;DHT22;7976;52.526;13.326;2022-09-24T00:21:24;13.00;99.90
15749;DHT22;7976;52.526;13.326;2022-09-24T00:23:54;13.00;99.90
15749;DHT22;7976;52.526;13.326;2022-09-24T00:26:23;12.90;99.90
15749;DHT22;7976;52.526;13.326;2022-09-24T00:29:10;12.90;99.90
15749;DHT22;7976;52.526;13.326;2022-09-24T00:31:39;13.00;99.90
15749;DHT22;7976;52.526;13.326;2022-09-24T00:34:06;12.90;99.90
15749;DHT22;7976;52.526;13.326;2022-09-24T00:36:33;12.80;99.90
15749;DHT22;7976;52.526;13.326;2022-09-24T00:39:00;12.80;99.90
15749;DHT22;7976;52.526;13.326;2022-09-24T00:41:29;12.80;99.90
15749;DHT22;7976;52.526;13.326;2022-09-24T00:43:57;12.80;99.90
15749;DHT22;7976;52.526;13.326;2022-09-24T00:46:26;12.80;99.90
15749;DHT22;7976;52.526;13.326;2022-09-24T00:49:01;12.80;99.90
15749;DHT22;7976;52.526;13.326;2022-09-24T00:51:36;12.80;99.90
15749;DHT22;7976;52.526;13.326;2022-09-24T00:54:06;12.70;99.90
15749;DHT22;7976;52.526;13.326;2022-09-24T00:56:37;12.70;99.90
15749;DHT22;7976;52.526;13.326;2022-09-24T00:59:09;12.70;99.90
15749;DHT22;7976;52.526;13.326;2022-09-24T01:01:42;12.70;99.90
15749;DHT22;7976;52.526;13.326;2022-09-24T01:04:12;12.70;99.90
15749;DHT22;7976;52.526;13.326;2022-09-24T01:06:40;12.60;99.90
15749;DHT22;7976;52.526;13.326;2022-09-24T01:09:08;12.70;99.90
15749;DHT22;7976;52.526;13.326;2022-09-24T01:11:42;12.70;99.90
15749;DHT22;7976;52.526;13.326;2022-09-24T01:14:33;12.70;99.90
15749;DHT22;7976;52.526;13.326;2022-09-24T01:17:16;12.70;99.90
15749;DHT22;7976;52.526;13.326;2022-09-24T01:26:49;12.70;99.90
15749;DHT22;7976;52.526;13.326;2022-09-24T01:29:41;12.70;99.90
15749;DHT22;7976;52.526;13.326;2022-09-24T01:32:18;12.70;99.90
15749;DHT22;7976;52.526;13.326;2022-09-24T01:34:56;12.70;99.90
15749;DHT22;7976;52.526;13.326;2022-09-24T01:37:29;12.70;99.90
15749;DHT22;7976;52.526;13.326;2022-09-24T01:39:59;12.70;99.90
15749;DHT22;7976;52.526;13.326;2022-09-24T01:42:29;12.70;99.90
15749;DHT22;7976;52.526;13.326;2022-09-24T01:45:00;12.70;99.90
15749;DHT22;7976;52.526;13.326;2022-09-24T01:47:30;12.70;99.90
15749;DHT22;7976;52.526;13.326;2022-09-24T01:50:00;12.70;99.90
15749;DHT22;7976;52.526;13.326;2022-09-24T01:52:32;12.70;99.90
15749;DHT22;7976;52.526;13.326;2022-09-24T01:55:05;12.70;99.90
15749;DHT22;7976;52.526;13.326;2022-09-24T01:57:38;12.70;99.90
15749;DHT22;7976;52.526;13.326;2022-09-24T02:00:13;12.70;99.90
15749;DHT22;7976;52.526;13.326;2022-09-24T02:02:44;12.70;99.90
15749;DHT22;7976;52.526;13.326;2022-09-24T02:05:21;12.70;99.90
15749;DHT22;7976;52.526;13.326;2022-09-24T02:07:55;12.70;99.90
15749;DHT22;7976;52.526;13.326;2022-09-24T02:10:31;12.70;99.90
15749;DHT22;7976;52.526;13.326;2022-09-24T02:13:04;12.70;99.90
15749;DHT22;7976;52.526;13.326;2022-09-24T02:15:41;12.60;99.90
15749;DHT22;7976;52.526;13.326;2022-09-24T02:18:15;12.60;99.90
15749;DHT22;7976;52.526;13.326;2022-09-24T02:20:45;12.60;99.90
15749;DHT22;7976;52.526;13.326;2022-09-24T02:23:14;12.60;99.90
15749;DHT22;7976;52.526;13.326;2022-09-24T02:25:47;12.60;99.90
15749;DHT22;7976;52.526;13.326;2022-09-24T02:28:19;12.70;99.90
15749;DHT22;7976;52.526;13.326;2022-09-24T02:30:50;12.60;99.90
15749;DHT22;7976;52.526;13.326;2022-09-24T02:33:23;12.60;99.90
15749;DHT22;7976;52.526;13.326;2022-09-24T02:36:10;12.60;99.90
15749;DHT22;7976;52.526;13.326;2022-09-24T02:38:37;12.60;99.90
15749;DHT22;7976;52.526;13.326;2022-09-24T02:41:04;12.60;99.90
15749;DHT22;7976;52.526;13.326;2022-09-24T02:43:32;12.60;99.90
15749;DHT22;7976;52.526;13.326;2022-09-24T02:46:01;12.60;99.90
15749;DHT22;7976;52.526;13.326;2022-09-24T02:48:28;12.60;99.90
15749;DHT22;7976;52.526;13.326;2022-09-24T02:50:55;12.60;99.90
15749;DHT22;7976;52.526;13.326;2022-09-24T02:53:22;12.60;99.90
15749;DHT22;7976;52.526;13.326;2022-09-24T02:55:49;12.60;99.90
15749;DHT22;7976;52.526;13.326;2022-09-24T02:58:15;12.60;99.90
15749;DHT22;7976;52.526;13.326;2022-09-24T03:00:42;12.50;99.90
15749;DHT22;7976;52.526;13.326;2022-09-24T03:03:10;12.50;99.90
15749;DHT22;7976;52.526;13.326;2022-09-24T03:05:37;12.50;99.90
15749;DHT22;7976;52.526;13.326;2022-09-24T03:08:04;12.50;99.90
15749;DHT22;7976;52.526;13.326;2022-09-24T03:10:31;12.60;99.90
15749;DHT22;7976;52.526;13.326;2022-09-24T03:12:59;12.60;99.90
15749;DHT22;7976;52.526;13.326;2022-09-24T03:15:26;12.60;99.90
15749;DHT22;7976;52.526;13.326;2022-09-24T03:17:54;12.60;99.90
15749;DHT22;7976;52.526;13.326;2022-09-24T03:20:22;12.60;99.90
15749;DHT22;7976;52.526;13.326;2022-09-24T03:22:49;12.60;99.90
15749;DHT22;7976;52.526;13.326;2022-09-24T03:25:17;12.60;99.90
15749;DHT22;7976;52.526;13.326;2022-09-24T03:27:45;12.60;99.90
15749;DHT22;7976;52.526;13.326;2022-09-24T03:30:12;12.60;99.90
15749;DHT22;7976;52.526;13.326;2022-09-24T03:32:57;12.60;99.90
15749;DHT22;7976;52.526;13.326;2022-09-24T03:35:26;12.60;99.90
15749;DHT22;7976;52.526;13.326;2022-09-24T03:37:53;12.50;99.90
15749;DHT22;7976;52.526;13.326;2022-09-24T03:40:19;12.50;99.90
15749;DHT22;7976;52.526;13.326;2022-09-24T03:42:47;12.50;99.90
15749;DHT22;7976;52.526;13.326;2022-09-24T03:45:13;12.50;99.90
15749;DHT22;7976;52.526;13.326;2022-09-24T03:47:40;12.50;99.90
15749;DHT22;7976;52.526;13.326;2022-09-24T03:50:07;12.60;99.90
15749;DHT22;7976;52.526;13.326;2022-09-24T03:52:37;12.50;99.90
15749;DHT22;7976;52.526;13.326;2022-09-24T03:55:05;12.50;99.90
15749;DHT22;7976;52.526;13.326;2022-09-24T03:57:32;12.50;99.90
15749;DHT22;7976;52.526;13.326;2022-09-24T03:59:59;12.40;99.90
15749;DHT22;7976;52.526;13.326;2022-09-24T04:02:27;12.40;99.90
15749;DHT22;7976;52.526;13.326;2022-09-24T04:04:54;12.40;99.90
15749;DHT22;7976;52.526;13.326;2022-09-24T04:07:21;12.40;99.90
15749;DHT22;7976;52.526;13.326;2022-09-24T04:09:49;12.40;99.90
15749;DHT22;7976;52.526;13.326;2022-09-24T04:12:16;12.40;99.90
15749;DHT22;7976;52.526;13.326;2022-09-24T04:14:42;12.50;99.90
15749;DHT22;7976;52.526;13.326;2022-09-24T04:17:09;12.50;99.90
15749;DHT22;7976;52.526;13.326;2022-09-24T04:19:36;12.40;99.90
15749;DHT22;7976;52.526;13.326;2022-09-24T04:22:04;12.40;99.90
15749;DHT22;7976;52.526;13.326;2022-09-24T04:24:30;12.30;99.90
15749;DHT22;7976;52.526;13.326;2022-09-24T04:26:58;12.30;99.90
15749;DHT22;7976;52.526;13.326;2022-09-24T04:29:25;12.30;99.90
15749;DHT22;7976;52.526;13.326;2022-09-24T04:31:52;12.30;99.90
15749;DHT22;7976;52.526;13.326;2022-09-24T04:34:19;12.30;99.90
15749;DHT22;7976;52.526;13.326;2022-09-24T04:36:46;12.30;99.90
15749;DHT22;7976;52.526;13.326;2022-09-24T04:39:13;12.30;99.90
15749;DHT22;7976;52.526;13.326;2022-09-24T04:41:40;12.40;99.90
15749;DHT22;7976;52.526;13.326;2022-09-24T04:44:08;12.30;99.90
15749;DHT22;7976;52.526;13.326;2022-09-24T04:46:35;12.30;99.90
15749;DHT22;7976;52.526;13.326;2022-09-24T04:49:02;12.40;99.90
15749;DHT22;7976;52.526;13.326;2022-09-24T04:51:29;12.40;99.90
15749;DHT22;7976;52.526;13.326;2022-09-24T04:54:00;12.40;99.90
15749;DHT22;7976;52.526;13.326;2022-09-24T04:56:27;12.40;99.90
15749;DHT22;7976;52.526;13.326;2022-09-24T04:58:55;12.40;99.90
15749;DHT22;7976;52.526;13.326;2022-09-24T05:01:23;12.40;99.90
15749;DHT22;7976;52.526;13.326;2022-09-24T05:03:51;12.30;99.90
15749;DHT22;7976;52.526;13.326;2022-09-24T05:06:18;12.30;99.90
15749;DHT22;7976;52.526;13.326;2022-09-24T05:08:45;12.30;99.90
15749;DHT22;7976;52.526;13.326;2022-09-24T05:11:12;12.30;99.90
15749;DHT22;7976;52.526;13.326;2022-09-24T05:13:38;12.20;99.90
15749;DHT22;7976;52.526;13.326;2022-09-24T05:16:05;12.30;99.90
15749;DHT22;7976;52.526;13.326;2022-09-24T05:18:34;12.30;99.90
15749;DHT22;7976;52.526;13.326;2022-09-24T05:21:01;12.30;99.90
15749;DHT22;7976;52.526;13.326;2022-09-24T05:23:28;12.30;99.90
15749;DHT22;7976;52.526;13.326;2022-09-24T05:25:55;12.30;99.90
15749;DHT22;7976;52.526;13.326;2022-09-24T05:28:39;12.30;99.90
15749;DHT22;7976;52.526;13.326;2022-09-24T05:31:07;12.30;99.90
15749;DHT22;7976;52.526;13.326;2022-09-24T05:33:36;12.30;99.90
15749;DHT22;7976;52.526;13.326;2022-09-24T05:36:03;12.40;99.90
15749;DHT22;7976;52.526;13.326;2022-09-24T05:38:30;12.30;99.90
15749;DHT22;7976;52.526;13.326;2022-09-24T05:40:58;12.30;99.90
15749;DHT22;7976;52.526;13.326;2022-09-24T05:43:25;12.30;99.90
15749;DHT22;7976;52.526;13.326;2022-09-24T05:45:52;12.30;99.90
15749;DHT22;7976;52.526;13.326;2022-09-24T05:48:21;12.30;99.90
15749;DHT22;7976;52.526;13.326;2022-09-24T05:50:49;12.30;99.90
15749;DHT22;7976;52.526;13.326;2022-09-24T05:53:20;12.30;99.90
15749;DHT22;7976;52.526;13.326;2022-09-24T05:55:48;12.40;99.90
15749;DHT22;7976;52.526;13.326;2022-09-24T05:58:15;12.40;99.90
15749;DHT22;7976;52.526;13.326;2022-09-24T06:00:42;12.40;99.90
15749;DHT22;7976;52.526;13.326;2022-09-24T06:03:11;12.40;99.90
15749;DHT22;7976;52.526;13.326;2022-09-24T06:05:43;12.40;99.90
15749;DHT22;7976;52.526;13.326;2022-09-24T06:08:15;12.40;99.90
15749;DHT22;7976;52.526;13.326;2022-09-24T06:10:44;12.40;99.90
15749;DHT22;7976;52.526;13.326;2022-09-24T06:13:12;12.40;99.90
15749;DHT22;7976;52.526;13.326;2022-09-24T06:15:42;12.40;99.90
15749;DHT22;7976;52.526;13.326;2022-09-24T06:18:10;12.40;99.90
15749;DHT22;7976;52.526;13.326;2022-09-24T06:20:37;12.40;99.90
15749;DHT22;7976;52.526;13.326;2022-09-24T06:23:04;12.40;99.90
15749;DHT22;7976;52.526;13.326;2022-09-24T06:25:33;12.40;99.90
15749;DHT22;7976;52.526;13.326;2022-09-24T06:28:03;12.40;99.90
15749;DHT22;7976;52.526;13.326;2022-09-24T06:30:33;12.50;99.90
15749;DHT22;7976;52.526;13.326;2022-09-24T06:33:04;12.50;99.90
15749;DHT22;7976;52.526;13.326;2022-09-24T06:35:33;12.50;99.90
15749;DHT22;7976;52.526;13.326;2022-09-24T06:38:01;12.60;99.90
15749;DHT22;7976;52.526;13.326;2022-09-24T06:40:28;12.70;99.90
15749;DHT22;7976;52.526;13.326;2022-09-24T06:42:57;12.70;99.90
15749;DHT22;7976;52.526;13.326;2022-09-24T06:45:25;12.70;99.90
15749;DHT22;7976;52.526;13.326;2022-09-24T06:47:52;12.70;99.90
15749;DHT22;7976;52.526;13.326;2022-09-24T06:50:20;12.80;99.90
15749;DHT22;7976;52.526;13.326;2022-09-24T06:52:48;12.80;99.90
15749;DHT22;7976;52.526;13.326;2022-09-24T06:55:15;12.80;99.90
15749;DHT22;7976;52.526;13.326;2022-09-24T06:57:43;12.90;99.90
15749;DHT22;7976;52.526;13.326;2022-09-24T07:00:13;12.90;99.90
15749;DHT22;7976;52.526;13.326;2022-09-24T07:02:41;12.90;99.90
15749;DHT22;7976;52.526;13.326;2022-09-24T07:05:09;12.90;99.90
15749;DHT22;7976;52.526;13.326;2022-09-24T07:07:36;12.90;99.90
15749;DHT22;7976;52.526;13.326;2022-09-24T07:10:05;12.90;99.90
15749;DHT22;7976;52.526;13.326;2022-09-24T07:12:34;12.90;99.90
15749;DHT22;7976;52.526;13.326;2022-09-24T07:15:02;12.90;99.90
15749;DHT22;7976;52.526;13.326;2022-09-24T07:17:30;12.90;99.90
15749;DHT22;7976;52.526;13.326;2022-09-24T07:19:57;12.90;99.90
15749;DHT22;7976;52.526;13.326;2022-09-24T07:22:24;13.00;99.90
15749;DHT22;7976;52.526;13.326;2022-09-24T07:24:51;13.00;99.90
15749;DHT22;7976;52.526;13.326;2022-09-24T07:27:18;13.10;99.90
15749;DHT22;7976;52.526;13.326;2022-09-24T07:29:46;13.10;99.90
15749;DHT22;7976;52.526;13.326;2022-09-24T07:32:14;13.10;99.90
15749;DHT22;7976;52.526;13.326;2022-09-24T07:34:43;13.20;99.90
15749;DHT22;7976;52.526;13.326;2022-09-24T07:37:10;13.10;99.90
15749;DHT22;7976;52.526;13.326;2022-09-24T07:39:37;13.20;99.90
15749;DHT22;7976;52.526;13.326;2022-09-24T07:42:05;13.20;99.90
15749;DHT22;7976;52.526;13.326;2022-09-24T07:44:32;13.20;99.90
15749;DHT22;7976;52.526;13.326;2022-09-24T07:46:59;13.20;99.90
15749;DHT22;7976;52.526;13.326;2022-09-24T07:49:26;13.20;99.90
15749;DHT22;7976;52.526;13.326;2022-09-24T07:51:58;13.20;99.90
15749;DHT22;7976;52.526;13.326;2022-09-24T07:54:25;13.20;99.90
15749;DHT22;7976;52.526;13.326;2022-09-24T07:56:54;13.20;99.90
15749;DHT22;7976;52.526;13.326;2022-09-24T07:59:21;13.20;99.90
15749;DHT22;7976;52.526;13.326;2022-09-24T08:01:49;13.20;99.90
15749;DHT22;7976;52.526;13.326;2022-09-24T08:04:16;13.30;99.90
15749;DHT22;7976;52.526;13.326;2022-09-24T08:06:43;13.30;99.90
15749;DHT22;7976;52.526;13.326;2022-09-24T08:09:14;13.40;99.90
15749;DHT22;7976;52.526;13.326;2022-09-24T08:11:42;13.40;99.90
15749;DHT22;7976;52.526;13.326;2022-09-24T08:14:09;13.40;99.90
15749;DHT22;7976;52.526;13.326;2022-09-24T08:16:37;13.40;99.90
15749;DHT22;7976;52.526;13.326;2022-09-24T08:19:05;13.40;99.90
15749;DHT22;7976;52.526;13.326;2022-09-24T08:21:38;13.50;99.90
15749;DHT22;7976;52.526;13.326;2022-09-24T08:24:05;13.50;99.90
15749;DHT22;7976;52.526;13.326;2022-09-24T08:26:35;13.60;99.90
15749;DHT22;7976;52.526;13.326;2022-09-24T08:29:02;13.60;99.90
15749;DHT22;7976;52.526;13.326;2022-09-24T08:31:30;13.70;99.90
15749;DHT22;7976;52.526;13.326;2022-09-24T08:33:59;13.70;99.90
15749;DHT22;7976;52.526;13.326;2022-09-24T08:36:26;13.70;99.90
15749;DHT22;7976;52.526;13.326;2022-09-24T08:38:54;13.80;99.90
15749;DHT22;7976;52.526;13.326;2022-09-24T08:41:47;13.80;99.90
15749;DHT22;7976;52.526;13.326;2022-09-24T08:44:25;13.80;99.90
15749;DHT22;7976;52.526;13.326;2022-09-24T08:47:15;13.80;99.90
15749;DHT22;7976;52.526;13.326;2022-09-24T08:49:57;13.80;99.90
15749;DHT22;7976;52.526;13.326;2022-09-24T08:52:57;13.90;99.90
15749;DHT22;7976;52.526;13.326;2022-09-24T08:55:35;13.90;99.90
15749;DHT22;7976;52.526;13.326;2022-09-24T08:58:36;14.00;99.90
15749;DHT22;7976;52.526;13.326;2022-09-24T09:01:19;14.10;99.90
15749;DHT22;7976;52.526;13.326;2022-09-24T09:03:57;14.20;99.90
15749;DHT22;7976;52.526;13.326;2022-09-24T09:06:41;14.30;99.90
15749;DHT22;7976;52.526;13.326;2022-09-24T09:09:24;14.40;99.90
15749;DHT22;7976;52.526;13.326;2022-09-24T09:12:02;14.50;99.90
15749;DHT22;7976;52.526;13.326;2022-09-24T09:14:38;14.60;99.90
15749;DHT22;7976;52.526;13.326;2022-09-24T09:17:15;14.60;99.90
15749;DHT22;7976;52.526;13.326;2022-09-24T09:19:55;14.70;99.90
15749;DHT22;7976;52.526;13.326;2022-09-24T09:22:28;14.80;99.90
15749;DHT22;7976;52.526;13.326;2022-09-24T09:25:02;14.80;99.90
15749;DHT22;7976;52.526;13.326;2022-09-24T09:27:38;14.90;99.90
15749;DHT22;7976;52.526;13.326;2022-09-24T09:30:12;14.90;99.90
15749;DHT22;7976;52.526;13.326;2022-09-24T09:32:53;14.90;99.90
15749;DHT22;7976;52.526;13.326;2022-09-24T09:35:35;15.00;99.90
15749;DHT22;7976;52.526;13.326;2022-09-24T09:38:14;15.00;99.90
15749;DHT22;7976;52.526;13.326;2022-09-24T09:40:52;15.00;99.90
15749;DHT22;7976;52.526;13.326;2022-09-24T09:43:25;14.90;99.90
15749;DHT22;7976;52.526;13.326;2022-09-24T09:46:00;14.90;99.90
15749;DHT22;7976;52.526;13.326;2022-09-24T09:48:43;14.90;99.90
15749;DHT22;7976;52.526;13.326;2022-09-24T09:51:17;14.90;99.90
15749;DHT22;7976;52.526;13.326;2022-09-24T09:53:55;15.00;99.90
15749;DHT22;7976;52.526;13.326;2022-09-24T09:56:25;15.10;99.90
15749;DHT22;7976;52.526;13.326;2022-09-24T09:59:04;15.10;99.90
15749;DHT22;7976;52.526;13.326;2022-09-24T10:01:38;15.10;99.90
15749;DHT22;7976;52.526;13.326;2022-09-24T10:04:26;15.10;99.90
15749;DHT22;7976;52.526;13.326;2022-09-24T10:07:08;15.10;99.90
15749;DHT22;7976;52.526;13.326;2022-09-24T10:09:38;15.10;99.90
15749;DHT22;7976;52.526;13.326;2022-09-24T10:12:08;15.20;99.90
15749;DHT22;7976;52.526;13.326;2022-09-24T10:14:40;15.30;99.90
15749;DHT22;7976;52.526;13.326;2022-09-24T10:17:12;15.30;99.90
15749;DHT22;7976;52.526;13.326;2022-09-24T10:19:43;15.30;99.90
15749;DHT22;7976;52.526;13.326;2022-09-24T10:22:18;15.30;99.90
15749;DHT22;7976;52.526;13.326;2022-09-24T10:24:48;15.30;99.90
15749;DHT22;7976;52.526;13.326;2022-09-24T10:27:20;15.30;99.90
15749;DHT22;7976;52.526;13.326;2022-09-24T10:29:53;15.20;99.90
15749;DHT22;7976;52.526;13.326;2022-09-24T10:32:41;15.30;99.90
15749;DHT22;7976;52.526;13.326;2022-09-24T10:35:25;15.30;99.90
15749;DHT22;7976;52.526;13.326;2022-09-24T10:37:55;15.30;99.90
15749;DHT22;7976;52.526;13.326;2022-09-24T10:40:25;15.40;99.90
15749;DHT22;7976;52.526;13.326;2022-09-24T10:42:57;15.40;99.90
15749;DHT22;7976;52.526;13.326;2022-09-24T10:45:47;15.40;99.90
15749;DHT22;7976;52.526;13.326;2022-09-24T10:48:32;15.50;99.90
15749;DHT22;7976;52.526;13.326;2022-09-24T10:51:15;15.50;99.90
15749;DHT22;7976;52.526;13.326;2022-09-24T10:54:03;15.50;99.90
15749;DHT22;7976;52.526;13.326;2022-09-24T10:56:47;15.50;99.90
15749;DHT22;7976;52.526;13.326;2022-09-24T10:59:26;15.60;99.90
15749;DHT22;7976;52.526;13.326;2022-09-24T11:02:22;15.60;99.90
15749;DHT22;7976;52.526;13.326;2022-09-24T11:05:10;15.60;99.90
15749;DHT22;7976;52.526;13.326;2022-09-24T11:07:47;15.60;99.90
15749;DHT22;7976;52.526;13.326;2022-09-24T11:10:37;15.60;99.90
15749;DHT22;7976;52.526;13.326;2022-09-24T11:13:24;15.60;99.90
15749;DHT22;7976;52.526;13.326;2022-09-24T11:16:17;15.70;99.90
15749;DHT22;7976;52.526;13.326;2022-09-24T11:18:56;15.70;99.90
15749;DHT22;7976;52.526;13.326;2022-09-24T11:21:41;15.90;99.90
15749;DHT22;7976;52.526;13.326;2022-09-24T11:24:30;16.00;99.90
15749;DHT22;7976;52.526;13.326;2022-09-24T11:27:40;16.10;99.90
15749;DHT22;7976;52.526;13.326;2022-09-24T11:30:18;16.20;99.90
15749;DHT22;7976;52.526;13.326;2022-09-24T11:32:59;16.30;99.90
15749;DHT22;7976;52.526;13.326;2022-09-24T11:35:56;16.30;99.90
15749;DHT22;7976;52.526;13.326;2022-09-24T11:38:46;16.40;99.90
15749;DHT22;7976;52.526;13.326;2022-09-24T11:41:32;16.40;99.90
15749;DHT22;7976;52.526;13.326;2022-09-24T11:44:22;16.40;99.90
15749;DHT22;7976;52.526;13.326;2022-09-24T11:47:17;16.50;99.90
15749;DHT22;7976;52.526;13.326;2022-09-24T11:50:09;16.50;99.90
15749;DHT22;7976;52.526;13.326;2022-09-24T11:52:48;16.60;99.90
15749;DHT22;7976;52.526;13.326;2022-09-24T11:55:22;16.60;99.90
15749;DHT22;7976;52.526;13.326;2022-09-24T11:58:02;16.60;99.90
15749;DHT22;7976;52.526;13.326;2022-09-24T12:00:41;16.60;99.90
15749;DHT22;7976;52.526;13.326;2022-09-24T12:03:16;16.60;99.90
15749;DHT22;7976;52.526;13.326;2022-09-24T12:06:04;16.60;99.90
15749;DHT22;7976;52.526;13.326;2022-09-24T12:08:39;16.50;99.90
15749;DHT22;7976;52.526;13.326;2022-09-24T12:11:19;16.50;99.90
15749;DHT22;7976;52.526;13.326;2022-09-24T12:13:55;16.50;99.90
15749;DHT22;7976;52.526;13.326;2022-09-24T12:16:32;16.40;99.90
15749;DHT22;7976;52.526;13.326;2022-09-24T12:19:09;16.40;99.90
15749;DHT22;7976;52.526;13.326;2022-09-24T12:21:43;16.30;99.90
15749;DHT22;7976;52.526;13.326;2022-09-24T12:24:17;16.20;99.90
15749;DHT22;7976;52.526;13.326;2022-09-24T12:26:56;16.20;99.90
15749;DHT22;7976;52.526;13.326;2022-09-24T12:29:34;16.10;99.90
15749;DHT22;7976;52.526;13.326;2022-09-24T12:32:30;16.10;99.90
15749;DHT22;7976;52.526;13.326;2022-09-24T12:35:50;16.00;99.90
15749;DHT22;7976;52.526;13.326;2022-09-24T12:38:32;16.00;99.90
15749;DHT22;7976;52.526;13.326;2022-09-24T12:41:21;15.90;99.90
15749;DHT22;7976;52.526;13.326;2022-09-24T12:43:57;15.80;99.90
15749;DHT22;7976;52.526;13.326;2022-09-24T12:46:31;15.80;99.90
15749;DHT22;7976;52.526;13.326;2022-09-24T12:49:15;15.90;99.90
15749;DHT22;7976;52.526;13.326;2022-09-24T12:51:47;16.00;99.90
15749;DHT22;7976;52.526;13.326;2022-09-24T12:54:22;16.10;99.90
15749;DHT22;7976;52.526;13.326;2022-09-24T12:57:07;16.30;99.90
15749;DHT22;7976;52.526;13.326;2022-09-24T12:59:50;16.40;99.90
15749;DHT22;7976;52.526;13.326;2022-09-24T13:02:20;16.60;99.90
15749;DHT22;7976;52.526;13.326;2022-09-24T13:04:51;16.60;99.90
15749;DHT22;7976;52.526;13.326;2022-09-24T13:07:40;16.70;99.90
15749;DHT22;7976;52.526;13.326;2022-09-24T13:10:20;16.70;99.90
15749;DHT22;7976;52.526;13.326;2022-09-24T13:12:49;16.70;99.90
15749;DHT22;7976;52.526;13.326;2022-09-24T13:15:27;16.70;99.90
15749;DHT22;7976;52.526;13.326;2022-09-24T13:18:17;16.60;99.90
15749;DHT22;7976;52.526;13.326;2022-09-24T13:20:58;16.50;99.90
15749;DHT22;7976;52.526;13.326;2022-09-24T13:23:32;16.50;99.90
15749;DHT22;7976;52.526;13.326;2022-09-24T13:26:13;16.50;99.90
15749;DHT22;7976;52.526;13.326;2022-09-24T13:28:54;16.60;99.90
15749;DHT22;7976;52.526;13.326;2022-09-24T13:31:37;16.60;99.90
15749;DHT22;7976;52.526;13.326;2022-09-24T13:34:17;16.60;99.90
15749;DHT22;7976;52.526;13.326;2022-09-24T13:36:50;16.60;99.90
15749;DHT22;7976;52.526;13.326;2022-09-24T13:39:25;16.60;99.90
15749;DHT22;7976;52.526;13.326;2022-09-24T13:42:00;16.60;99.90
15749;DHT22;7976;52.526;13.326;2022-09-24T13:44:35;16.50;99.90
15749;DHT22;7976;52.526;13.326;2022-09-24T13:47:12;16.50;99.90
15749;DHT22;7976;52.526;13.326;2022-09-24T13:49:45;16.50;99.90
15749;DHT22;7976;52.526;13.326;2022-09-24T13:52:23;16.50;99.90
15749;DHT22;7976;52.526;13.326;2022-09-24T13:54:57;16.60;99.90
15749;DHT22;7976;52.526;13.326;2022-09-24T13:57:27;16.60;99.90
15749;DHT22;7976;52.526;13.326;2022-09-24T14:00:11;16.70;99.90
15749;DHT22;7976;52.526;13.326;2022-09-24T14:02:42;16.70;99.90
15749;DHT22;7976;52.526;13.326;2022-09-24T14:05:17;16.80;99.90
15749;DHT22;7976;52.526;13.326;2022-09-24T14:07:53;16.80;99.90
15749;DHT22;7976;52.526;13.326;2022-09-24T14:10:23;16.80;99.90
15749;DHT22;7976;52.526;13.326;2022-09-24T14:13:04;16.90;99.90
15749;DHT22;7976;52.526;13.326;2022-09-24T14:15:52;16.90;99.90
15749;DHT22;7976;52.526;13.326;2022-09-24T14:18:22;16.90;99.90
15749;DHT22;7976;52.526;13.326;2022-09-24T14:20:54;16.90;99.90
15749;DHT22;7976;52.526;13.326;2022-09-24T14:23:26;16.90;99.90
15749;DHT22;7976;52.526;13.326;2022-09-24T14:25:57;16.90;99.90
15749;DHT22;7976;52.526;13.326;2022-09-24T14:28:25;16.90;99.90
15749;DHT22;7976;52.526;13.326;2022-09-24T14:30:57;16.80;99.90
15749;DHT22;7976;52.526;13.326;2022-09-24T14:33:30;16.90;99.90
15749;DHT22;7976;52.526;13.326;2022-09-24T14:36:00;16.80;99.90
15749;DHT22;7976;52.526;13.326;2022-09-24T14:38:31;16.80;99.90
15749;DHT22;7976;52.526;13.326;2022-09-24T14:41:03;16.80;99.90
15749;DHT22;7976;52.526;13.326;2022-09-24T14:43:43;16.80;99.90
15749;DHT22;7976;52.526;13.326;2022-09-24T14:46:19;16.80;99.90
15749;DHT22;7976;52.526;13.326;2022-09-24T14:49:15;16.80;99.90
15749;DHT22;7976;52.526;13.326;2022-09-24T14:51:51;16.80;99.90
15749;DHT22;7976;52.526;13.326;2022-09-24T14:54:25;16.80;99.90
15749;DHT22;7976;52.526;13.326;2022-09-24T14:57:07;16.80;99.90
15749;DHT22;7976;52.526;13.326;2022-09-24T14:59:37;16.70;99.90
15749;DHT22;7976;52.526;13.326;2022-09-24T15:02:15;16.70;99.90
15749;DHT22;7976;52.526;13.326;2022-09-24T15:04:49;16.60;99.90
15749;DHT22;7976;52.526;13.326;2022-09-24T15:07:22;16.60;99.90
15749;DHT22;7976;52.526;13.326;2022-09-24T15:09:52;16.60;99.90
15749;DHT22;7976;52.526;13.326;2022-09-24T15:12:25;16.50;99.90
15749;DHT22;7976;52.526;13.326;2022-09-24T15:14:58;16.50;99.90
15749;DHT22;7976;52.526;13.326;2022-09-24T15:17:31;16.50;99.90
15749;DHT22;7976;52.526;13.326;2022-09-24T15:20:09;16.40;99.90
15749;DHT22;7976;52.526;13.326;2022-09-24T15:22:38;16.40;99.90
15749;DHT22;7976;52.526;13.326;2022-09-24T15:25:12;16.40;99.90
15749;DHT22;7976;52.526;13.326;2022-09-24T15:27:42;16.30;99.90
15749;DHT22;7976;52.526;13.326;2022-09-24T15:30:17;16.30;99.90
15749;DHT22;7976;52.526;13.326;2022-09-24T15:32:45;16.30;99.90
15749;DHT22;7976;52.526;13.326;2022-09-24T15:35:15;16.30;99.90
15749;DHT22;7976;52.526;13.326;2022-09-24T15:37:42;16.30;99.90
15749;DHT22;7976;52.526;13.326;2022-09-24T15:40:18;16.30;99.90
15749;DHT22;7976;52.526;13.326;2022-09-24T15:43:01;16.20;99.90
15749;DHT22;7976;52.526;13.326;2022-09-24T15:45:30;16.20;99.90
15749;DHT22;7976;52.526;13.326;2022-09-24T15:48:07;16.20;99.90
15749;DHT22;7976;52.526;13.326;2022-09-24T15:50:56;16.20;99.90
15749;DHT22;7976;52.526;13.326;2022-09-24T15:53:26;16.20;99.90
15749;DHT22;7976;52.526;13.326;2022-09-24T15:55:56;16.20;99.90
15749;DHT22;7976;52.526;13.326;2022-09-24T15:58:25;16.20;99.90
15749;DHT22;7976;52.526;13.326;2022-09-24T16:00:52;16.10;99.90
15749;DHT22;7976;52.526;13.326;2022-09-24T16:03:37;16.10;99.90
15749;DHT22;7976;52.526;13.326;2022-09-24T16:06:10;16.10;99.90
15749;DHT22;7976;52.526;13.326;2022-09-24T16:08:49;16.10;99.90
15749;DHT22;7976;52.526;13.326;2022-09-24T16:11:17;16.10;99.90
15749;DHT22;7976;52.526;13.326;2022-09-24T16:13:44;16.00;99.90
15749;DHT22;7976;52.526;13.326;2022-09-24T16:16:11;16.00;99.90